This is the latest recevied weather packets stored in our database for station/object DM3FAM-10. If no packets are shown the sender has not sent any weather packets the latest 1 day(s).
| Time | Temp. | Humidity | Pressure | Rain* | Wind** | Luminosity | Snow |
|---|---|---|---|---|---|---|---|
| 1778084559 | 8.89° C | 100% | 960.7 hPa | - | - | - | - |
| 1778083659 | 9.44° C | 100% | 960.6 hPa | - | - | - | - |
| 1778082759 | 9.44° C | 100% | 960.5 hPa | - | - | - | - |
| 1778071958 | 11.11° C | 100% | 959.5 hPa | - | - | - | - |
| 1778071058 | 12.22° C | 100% | 959.4 hPa | - | - | - | - |
| 1778070158 | 12.22° C | 100% | 959.2 hPa | - | - | - | - |
| 1778069258 | 12.78° C | 100% | 959 hPa | - | - | - | - |
| 1778068358 | 12.78° C | 100% | 958.8 hPa | - | - | - | - |
| 1778061157 | 15° C | 100% | 958.5 hPa | - | - | - | - |
| 1778059357 | 14.44° C | 100% | 958.4 hPa | - | - | - | - |
| 1778058457 | 15° C | 100% | 958.3 hPa | - | - | - | - |
| 1778057557 | 16.67° C | 92% | 958.2 hPa | - | - | - | - |
| 1778056657 | 16.11° C | 99% | 958 hPa | - | - | - | - |
| 1778055757 | 15° C | 100% | 958 hPa | - | - | - | - |
| 1778054857 | 15° C | 100% | 958.1 hPa | - | - | - | - |
| 1778053957 | 13.89° C | 100% | 958.3 hPa | - | - | - | - |
| 1778053057 | 13.33° C | 100% | 958.2 hPa | - | - | - | - |
| 1778051256 | 11.67° C | 100% | 958.3 hPa | - | - | - | - |
| 1778049456 | 10.56° C | 100% | 958.2 hPa | - | - | - | - |
| 1778047656 | 9.44° C | 100% | 958.3 hPa | - | - | - | - |
| 1778046756 | 8.89° C | 100% | 958.3 hPa | - | - | - | - |
| 1778045856 | 8.89° C | 100% | 958.5 hPa | - | - | - | - |
| 1778044956 | 8.33° C | 100% | 958.4 hPa | - | - | - | - |
| 1778044056 | 7.78° C | 100% | 958.5 hPa | - | - | - | - |
| 1778043156 | 7.78° C | 100% | 958.6 hPa | - | - | - | - |
* Rain since midnight (hover to see other rain measurements)
** Current wind speed in m/s (hover to see current wind gust speed)